Flight Track Log - Related Links

Times and Time Zones

All times are in EST time to prevent confusion due to time zone crossing. See the UAL1058 flight status page for this flight to view local times or setup timezone preferences in your user account.

Time Position Orientation Groundspeed Altitude Reporting Facility
EST Latitude Longitude Course Direction KTS MPH feet Rate Location/Type
Fri 02:20:04 PM 29.9642 -95.3481 41° Northeast 171 197 600  Level Houston Center
Fri 02:20:16 PM 29.9572 -95.3392 132° Southeast 169 194 1,100 2,113 Climbing Houston Center
Fri 02:21:15 PM 29.9828 -95.3000 53° Northeast 234 269 3,100 2,361 Climbing Houston Center
Fri 02:21:17 PM 29.9933 -95.2986 North 231 266 3,500 844 Climbing Houston Center
Fri 02:22:19 PM 30.0742 -95.2889 North 272 313 4,000 537 Climbing Houston Center
Fri 02:23:00 PM 30.4213 -94.9866 30° Northeast  Level Estimated
Fri 02:23:20 PM 30.1478 -95.2656 15° North 276 318 4,600  Level Houston Center
Fri 02:24:00 PM 30.5303 -94.8974 23° Northeast  Level Estimated
Fri 02:24:21 PM 30.2194 -95.2394 17° North 277 319 8,300  Level Houston Center
Fri 02:25:00 PM 30.6393 -94.8080 41° Northeast  Level Estimated
Fri 02:25:23 PM 30.3011 -95.2114 17° North 300 345 11,300  Level Houston Center
Fri 02:26:25 PM 30.3933 -95.1808 16° North 338 389 14,500 2,880 Climbing Houston Center
Fri 02:27:28 PM 30.4997 -95.1339 21° North 367 422 17,300 2,640 Climbing Houston Center
Fri 02:28:30 PM 30.5986 -95.0697 29° Northeast 402 463 20,000 2,565 Climbing Houston Center
Fri 02:29:32 PM 30.7017 -95.0053 28° Northeast 417 480 22,600 2,129 Climbing Houston Center
Fri 02:30:34 PM 30.8031 -94.9414 28° Northeast 415 478 24,400 1,694 Climbing Houston Center
Fri 02:31:36 PM 30.9050 -94.8783 28° Northeast 415 478 26,100 1,935 Climbing Houston Center
Fri 02:32:38 PM 31.0361 -94.7961 28° Northeast 443 510 28,400 2,081 Climbing Houston Center
Fri 02:33:40 PM 31.1447 -94.7269 29° Northeast 448 516 30,400 1,248 Climbing Houston Center
Fri 02:34:43 PM 31.2514 -94.6556 30° Northeast 458 527 31,000 528 Climbing Houston Center
Fri 02:35:45 PM 31.3847 -94.5633 31° Northeast 469 540 31,500 823 Climbing Houston Center
Fri 02:36:47 PM 31.4978 -94.4856 30° Northeast 471 542 32,700 1,258 Climbing Houston Center
Fri 02:37:49 PM 31.6158 -94.4033 31° Northeast 489 563 34,100 1,355 Climbing Houston Center
Fri 02:38:51 PM 31.7306 -94.3139 34° Northeast 496 571 35,500 1,403 Climbing Houston Center
Fri 02:39:53 PM 31.8550 -94.1939 39° Northeast 507 583 37,000 1,306 Climbing Houston Center
Fri 02:40:55 PM 31.9656 -94.0869 39° Northeast 510 587 38,200 871 Climbing Houston Center
Fri 02:41:57 PM 32.0817 -93.9750 39° Northeast 508 585 38,800 384 Climbing Houston Center
Fri 02:43:00 PM 32.1939 -93.8661 39° Northeast 519 597 39,000 96 Climbing Houston Center
Fri 02:44:02 PM 32.3061 -93.7578 39° Northeast 520 598 39,000  Level Houston Center
Fri 02:45:20 PM 32.4486 -93.6197 39° Northeast 515 593 39,000  Level Fort Worth Center
Fri 02:46:20 PM 32.5558 -93.5119 40° Northeast 509 586 39,000  Level Fort Worth Center
Fri 02:47:20 PM 32.6653 -93.4058 39° Northeast 509 586 39,000  Level Fort Worth Center
Fri 02:48:20 PM 32.7744 -93.2972 40° Northeast 514 592 39,000  Level Fort Worth Center
Fri 02:49:20 PM 32.8856 -93.1883 39° Northeast 514 592 39,000  Level Fort Worth Center
Fri 02:50:20 PM 32.9947 -93.0792 40° Northeast 508 585 39,000  Level Fort Worth Center
Fri 02:52:20 PM 33.2072 -92.8692 40° Northeast 510 587 39,000  Level Memphis Center
Fri 02:53:22 PM 33.3372 -92.7389 40° Northeast 510 587 39,000  Level Memphis Center
Fri 02:54:24 PM 33.4447 -92.6303 40° Northeast 509 586 39,000  Level Memphis Center
Fri 02:55:26 PM 33.5514 -92.5225 40° Northeast 506 582 39,000  Level Memphis Center
Fri 02:56:28 PM 33.6594 -92.4153 40° Northeast 505 581 39,000  Level Memphis Center
Fri 02:57:30 PM 33.7647 -92.3067 41° Northeast 502 578 39,000  Level Memphis Center
Fri 02:58:32 PM 33.8928 -92.1783 40° Northeast 501 577 39,000  Level Memphis Center
Fri 02:59:34 PM 33.9981 -92.0692 41° Northeast 500 575 39,000  Level Memphis Center
Fri 03:00:36 PM 34.1089 -91.9569 40° Northeast 500 575 39,000  Level Memphis Center
Fri 03:01:39 PM 34.2139 -91.8469 41° Northeast 501 577 39,000  Level Memphis Center
Fri 03:02:41 PM 34.3203 -91.7389 40° Northeast 503 579 39,000  Level Memphis Center
Fri 03:03:43 PM 34.4331 -91.6206 41° Northeast 498 573 39,000  Level Memphis Center
Fri 03:04:45 PM 34.5392 -91.5106 40° Northeast 498 573 39,000  Level Memphis Center
Fri 03:05:47 PM 34.6453 -91.4017 40° Northeast 495 570 39,000  Level Memphis Center
Fri 03:06:49 PM 34.7497 -91.2919 41° Northeast 493 567 39,000  Level Memphis Center
Fri 03:07:51 PM 34.8539 -91.1808 41° Northeast 492 566 39,000  Level Memphis Center
Fri 03:08:53 PM 34.9594 -91.0708 40° Northeast 492 566 39,000  Level Memphis Center
Fri 03:09:55 PM 35.0817 -90.9411 41° Northeast 493 567 39,000  Level Memphis Center
Fri 03:10:57 PM 35.1861 -90.8292 41° Northeast 494 568 39,000  Level Memphis Center
Fri 03:11:59 PM 35.2911 -90.7169 41° Northeast 494 568 39,000  Level Memphis Center
Fri 03:13:01 PM 35.3967 -90.6044 41° Northeast 495 570 39,000  Level Memphis Center
Fri 03:14:03 PM 35.5017 -90.4922 41° Northeast 495 570 39,000  Level Memphis Center
Fri 03:15:05 PM 35.6072 -90.3783 41° Northeast 496 571 39,000  Level Memphis Center
Fri 03:16:08 PM 35.7175 -90.2589 41° Northeast 503 579 39,000  Level Memphis Center
Fri 03:17:10 PM 35.8242 -90.1417 42° Northeast 510 587 39,000  Level Memphis Center
Fri 03:18:12 PM 35.9311 -90.0250 41° Northeast 513 590 39,000  Level Memphis Center
Fri 03:19:14 PM 36.0603 -89.8833 42° Northeast 515 593 39,000  Level Memphis Center
Fri 03:20:16 PM 36.1683 -89.7667 41° Northeast 515 593 39,000  Level Memphis Center
Fri 03:21:18 PM 36.2758 -89.6461 42° Northeast 518 596 39,000  Level Memphis Center
Fri 03:22:20 PM 36.3847 -89.5267 41° Northeast 517 595 39,000  Level Memphis Center
Fri 03:23:22 PM 36.4958 -89.4039 42° Northeast 517 595 39,000  Level Memphis Center
Fri 03:24:24 PM 36.6047 -89.2811 42° Northeast 517 595 39,000  Level Memphis Center
Fri 03:25:26 PM 36.7108 -89.1617 42° Northeast 512 589 39,000  Level Memphis Center
Fri 03:26:28 PM 36.8161 -89.0425 42° Northeast 510 587 39,000  Level Memphis Center
Fri 03:27:30 PM 36.9225 -88.9231 42° Northeast 511 588 39,000  Level Memphis Center
Fri 03:28:32 PM 37.0486 -88.7800 42° Northeast 510 587 39,000  Level Memphis Center
Fri 03:29:34 PM 37.1539 -88.6611 42° Northeast 509 586 39,000  Level Memphis Center
Fri 03:30:37 PM 37.2583 -88.5400 43° Northeast 511 588 39,000  Level Memphis Center
Fri 03:31:39 PM 37.3622 -88.4211 42° Northeast 507 583 39,000  Level Memphis Center
Fri 03:32:20 PM 37.4328 -88.3392 43° Northeast 506 582 39,000  Level Indianapolis Center
Fri 03:33:22 PM 37.5433 -88.2111 43° Northeast 502 578 39,000  Level Indianapolis Center
Fri 03:34:24 PM 37.6400 -88.0992 43° Northeast 501 577 39,000  Level Indianapolis Center
Fri 03:35:26 PM 37.7603 -87.9586 43° Northeast 500 575 39,000  Level Indianapolis Center
Fri 03:36:29 PM 37.8519 -87.8556 42° Northeast 497 572 39,000  Level Indianapolis Center
Fri 03:37:31 PM 37.9711 -87.7697 30° Northeast 489 563 39,000  Level Indianapolis Center
Fri 03:38:33 PM 38.1153 -87.6633 30° Northeast 494 568 39,000  Level Indianapolis Center
Fri 03:39:35 PM 38.2364 -87.5719 31° Northeast 500 575 39,000  Level Indianapolis Center
Fri 03:40:37 PM 38.3586 -87.4822 30° Northeast 500 575 39,000  Level Indianapolis Center
Fri 03:41:39 PM 38.4814 -87.3906 30° Northeast 501 577 39,000  Level Indianapolis Center
Fri 03:42:41 PM 38.6031 -87.2983 31° Northeast 500 575 39,000  Level Indianapolis Center
Fri 03:43:43 PM 38.7239 -87.2042 31° Northeast 501 577 39,000  Level Indianapolis Center
Fri 03:44:45 PM 38.8406 -87.1019 34° Northeast 501 577 39,000  Level Indianapolis Center
Fri 03:45:47 PM 38.9569 -87.0011 34° Northeast 501 577 39,000  Level Indianapolis Center
Fri 03:46:49 PM 39.0739 -86.8989 34° Northeast 503 579 39,000 -242 Level Indianapolis Center
Fri 03:47:51 PM 39.1917 -86.7972 34° Northeast 505 581 38,500 -823 Descending Indianapolis Center
Fri 03:48:53 PM 39.3319 -86.6742 34° Northeast 506 582 37,300 -726 Descending Indianapolis Center
Fri 03:49:55 PM 39.4503 -86.5711 34° Northeast 508 585 37,000 -145 Descending Indianapolis Center
Fri 03:50:57 PM 39.5683 -86.4675 34° Northeast 510 587 37,000  Level Indianapolis Center
Fri 03:52:00 PM 39.6856 -86.3622 35° Northeast 508 585 37,000 -48 Level Indianapolis Center
Fri 03:53:02 PM 39.8025 -86.2578 34° Northeast 510 587 36,900 -1,548 Descending Indianapolis Center
Fri 03:54:04 PM 39.9200 -86.1531 34° Northeast 509 586 33,800 -1,887 Descending Indianapolis Center
Fri 03:55:06 PM 40.0381 -86.0456 35° Northeast 513 590 33,000 -387 Descending Indianapolis Center
Fri 03:56:08 PM 40.1703 -85.9267 34° Northeast 507 583 33,000  Level Indianapolis Center
Fri 03:56:48 PM 40.2361 -85.8703 33° Northeast 509 586 33,000  Level Chicago Center
Fri 03:57:50 PM 40.3781 -85.7431 34° Northeast 515 593 33,000 -242 Level Chicago Center
Fri 03:58:52 PM 40.4961 -85.6358 35° Northeast 516 594 32,500 -1,276 Descending Chicago Center
Fri 03:59:57 PM 40.6153 -85.5244 35° Northeast 525 604 30,300 -2,740 Descending Chicago Center
Fri 04:00:59 PM 40.7344 -85.4150 35° Northeast 526 605 26,700 -3,435 Descending Chicago Center
Fri 04:02:01 PM 40.8736 -85.2875 35° Northeast 514 592 23,200 -2,710 Descending Chicago Center
Fri 04:03:03 PM 40.9769 -85.1894 36° Northeast 476 548 21,100 -1,065 Descending Chicago Center
Fri 04:04:05 PM 41.0728 -85.0892 38° Northeast 448 516 21,000 -48 Descending Chicago Center
Fri 04:05:08 PM 41.1678 -84.9883 39° Northeast 443 510 21,000  Level Chicago Center
Fri 04:06:10 PM 41.2614 -84.8842 40° Northeast 442 509 21,000 -97 Level Chicago Center
Fri 04:07:12 PM 41.3767 -84.7614 39° Northeast 447 514 20,800 -823 Descending Chicago Center
Fri 04:08:14 PM 41.4697 -84.6608 39° Northeast 436 502 19,300 -1,440 Descending Chicago Center
Fri 04:09:17 PM 41.5592 -84.5611 40° Northeast 428 493 17,800 -1,452 Descending Chicago Center
Fri 04:10:18 PM 41.6472 -84.4661 39° Northeast 416 479 16,300 -1,561 Descending Chicago Center
Fri 04:11:20 PM 41.7136 -84.3281 57° Northeast 393 452 14,600 -1,586 Descending Cleveland Center
Fri 04:11:45 PM 41.7364 -84.2700 62° Northeast 394 453 14,000 -1,574 Descending Cleveland Center
Fri 04:12:21 PM 41.7653 -84.1931 63° Northeast 388 447 13,000 -1,355 Descending Cleveland Center
Fri 04:12:47 PM 41.7789 -84.1572 63° Northeast 388 447 12,600 -984 Descending Cleveland Center
Fri 04:13:22 PM 41.8139 -84.0658 63° Northeast 379 436 12,000 -581 Descending Cleveland Center
Fri 04:13:49 PM 41.8267 -84.0342 62° Northeast 378 435 12,000  Level Cleveland Center
Fri 04:14:18 PM 41.8761 -83.9717 43° Northeast 369 425 12,000  Level Cleveland Center
Fri 04:14:51 PM 41.9142 -83.9167 47° Northeast 375 432 12,000  Level Cleveland Center
Fri 04:15:25 PM 41.9592 -83.8575 44° Northeast 373 429 12,000  Level Cleveland Center
Fri 04:15:54 PM 41.9864 -83.8175 48° Northeast 372 428 12,000  Level Cleveland Center
Fri 04:16:26 PM 42.0303 -83.7583 45° Northeast 374 430 12,000  Level Cleveland Center
Fri 04:16:56 PM 42.0592 -83.7183 46° Northeast 374 430 12,000  Level Cleveland Center
Fri 04:17:27 PM 42.1036 -83.6539 47° Northeast 377 434 12,000  Level Cleveland Center
Fri 04:17:58 PM 42.1128 -83.6078 75° East 364 419 12,000  Level Cleveland Center
Fri 04:18:23 PM 42.1125 -83.5425 90° East 305 351 12,000  Level Cleveland Center
Fri 04:19:00 PM 42.1097 -83.4858 94° East 307 353 12,000  Level Cleveland Center
Fri 04:19:30 PM 42.0939 -83.4331 112° Southeast 246 283 12,000  Level Cleveland Center
Fri 04:20:02 PM 42.0850 -83.3992 109° East 248 285 12,000  Level Cleveland Center
Fri 04:20:31 PM 42.0736 -83.3456 106° East 252 290 12,000  Level Cleveland Center
Fri 04:21:04 PM 42.0856 -83.3100 66° East 258 297 12,000 -393 Level Cleveland Center
Fri 04:21:32 PM 42.1247 -83.2825 28° Northeast 256 295 11,600 -1,065 Descending Cleveland Center
Fri 04:22:06 PM 42.1583 -83.2547 31° Northeast 256 295 10,900 -1,161 Descending Cleveland Center
Fri 04:22:34 PM 42.1872 -83.2319 30° Northeast 251 289 10,400 -968 Descending Cleveland Center
Fri 04:23:08 PM 42.2094 -83.2103 36° Northeast 253 291 9,900 -1,254 Descending Cleveland Center
Fri 04:23:41 PM 42.2500 -83.1786 30° Northeast 243 280 9,000 -1,452 Descending Cleveland Center
Fri 04:24:10 PM 42.2769 -83.1508 37° Northeast 245 282 8,400 -1,200 Descending Cleveland Center
Fri 04:24:36 PM 42.3017 -83.1322 29° Northeast 245 282 7,900 -1,258 Descending Cleveland Center
Fri 04:25:12 PM 42.3339 -83.1206 15° North 229 264 7,100 -1,397 Descending Cleveland Center
Fri 04:25:49 PM 42.3631 -83.1519 322° Northwest 173 199 6,200 -1,355 Descending Cleveland Center
Fri 04:26:14 PM 42.3614 -83.1694 263° West 197 227 5,700 -1,469 Descending Cleveland Center
Fri 04:26:38 PM 42.3492 -83.1953 237° Southwest 161 185 5,000 -1,452 Descending Cleveland Center
Fri 04:27:16 PM 42.3367 -83.2172 232° Southwest 161 185 4,200 -1,612 Descending Cleveland Center
Fri 04:27:45 PM 42.3239 -83.2511 243° Southwest 160 184 3,200 -1,238 Descending Cleveland Center
Fri 04:28:19 PM 42.3119 -83.2658 222° Southwest 161 185 2,900 -885 Descending Cleveland Center
Fri 04:28:46 PM 42.2900 -83.2831 210° Southwest 134 154 2,300 -774 Descending Cleveland Center
Fri 04:29:21 PM 42.2775 -83.2908 205° Southwest 147 169 2,100 -677 Descending Cleveland Center
Fri 04:29:48 PM 42.2569 -83.3067 210° Southwest 131 151 1,600 -871 Descending Cleveland Center
Fri 04:30:23 PM 42.2394 -83.3175 205° Southwest 133 153 1,200 -700 Descending Cleveland Center
Fri 04:30:48 PM 42.2256 -83.3303 214° Southwest 124 143 900 -290 Descending Cleveland Center
Fri 04:31:25 PM 42.2106 -83.3394 204° Southwest 131 151 900  Level Cleveland Center

Login

Don't have an account? Register now (free) for customized features, flight alerts, and more!